createdAt,value
2023-01-28T00:00:11.434Z,80.58
2023-01-28T00:02:40.251Z,80.73
2023-01-28T00:05:09.843Z,80.79
2023-01-28T00:07:38.427Z,81.00
2023-01-28T00:10:08.391Z,81.06
2023-01-28T00:12:38.465Z,81.08
2023-01-28T00:15:08.636Z,81.14
2023-01-28T00:17:37.882Z,81.12
2023-01-28T00:20:08.268Z,80.93
2023-01-28T00:22:36.890Z,80.97
2023-01-28T00:25:06.423Z,81.06
2023-01-28T00:27:35.117Z,80.96
2023-01-28T00:30:07.191Z,80.97
2023-01-28T00:32:38.307Z,80.81
2023-01-28T00:35:08.153Z,80.63
2023-01-28T00:37:37.913Z,80.63
2023-01-28T00:40:10.100Z,80.56
2023-01-28T00:42:38.752Z,80.52
2023-01-28T00:45:10.137Z,80.50
2023-01-28T00:47:38.933Z,80.62
2023-01-28T00:50:08.825Z,80.98
2023-01-28T00:52:37.439Z,81.08
2023-01-28T00:55:07.417Z,81.17
2023-01-28T00:57:36.018Z,81.39
2023-01-28T01:00:06.935Z,81.35
2023-01-28T01:02:37.467Z,81.32
2023-01-28T01:05:08.719Z,81.35
2023-01-28T01:07:42.636Z,81.45
2023-01-28T01:10:14.057Z,81.54
2023-01-28T01:12:43.103Z,81.56
2023-01-28T01:15:13.035Z,81.46
2023-01-28T01:17:47.624Z,81.38
2023-01-28T01:20:19.718Z,81.19
2023-01-28T01:22:49.106Z,81.18
2023-01-28T01:25:20.415Z,81.23
2023-01-28T01:27:51.692Z,80.98
2023-01-28T01:30:20.645Z,81.08
2023-01-28T01:32:51.322Z,81.06
2023-01-28T01:35:20.030Z,81.03
2023-01-28T01:37:48.606Z,80.97
2023-01-28T01:40:17.948Z,81.12
2023-01-28T01:42:46.512Z,81.13
2023-01-28T01:45:17.574Z,81.28
2023-01-28T01:47:55.695Z,81.29
2023-01-28T01:50:34.982Z,81.22
2023-01-28T01:53:10.957Z,81.43
2023-01-28T01:55:44.688Z,81.46
2023-01-28T01:58:18.533Z,81.53
2023-01-28T02:00:47.962Z,81.43
2023-01-28T02:03:22.979Z,81.34
2023-01-28T02:05:52.266Z,81.38
2023-01-28T02:08:25.729Z,81.55
2023-01-28T02:10:59.033Z,81.79
2023-01-28T02:13:33.628Z,81.81
2023-01-28T02:16:05.923Z,81.81
2023-01-28T02:18:36.526Z,81.90
2023-01-28T02:22:02.138Z,81.92
2023-01-28T02:25:04.017Z,81.66
2023-01-28T02:27:41.191Z,81.64
2023-01-28T02:30:22.399Z,81.57
2023-01-28T02:32:58.853Z,81.76
2023-01-28T02:35:39.064Z,81.71
2023-01-28T02:38:15.911Z,81.92
2023-01-28T02:41:08.071Z,81.91
2023-01-28T02:43:40.282Z,82.04
2023-01-28T02:46:40.156Z,81.96
2023-01-28T02:49:13.939Z,81.83
2023-01-28T02:52:45.053Z,81.70
2023-01-28T02:55:24.139Z,81.46
2023-01-28T02:58:07.447Z,81.58
2023-01-28T03:00:50.446Z,81.64
2023-01-28T03:03:27.862Z,81.64
2023-01-28T03:06:07.979Z,81.99
2023-01-28T03:09:01.353Z,82.02
2023-01-28T03:11:52.045Z,82.13
2023-01-28T03:14:40.683Z,82.06
2023-01-28T03:17:35.102Z,82.14
2023-01-28T03:20:25.025Z,82.16
2023-01-28T03:23:15.518Z,82.26
2023-01-28T03:26:06.108Z,82.15
2023-01-28T03:28:55.354Z,82.14
2023-01-28T03:31:42.984Z,82.33
2023-01-28T03:34:33.045Z,82.24
2023-01-28T03:37:03.301Z,82.36
2023-01-28T03:39:34.491Z,82.32
2023-01-28T03:42:07.322Z,82.37
2023-01-28T03:44:53.379Z,82.28
2023-01-28T03:47:25.409Z,82.17
2023-01-28T03:49:56.735Z,82.29
2023-01-28T03:52:29.005Z,82.45
2023-01-28T03:55:14.279Z,82.56
2023-01-28T03:57:45.015Z,82.55
2023-01-28T04:00:18.286Z,82.51
2023-01-28T04:02:47.109Z,82.49
2023-01-28T04:05:21.579Z,82.47
2023-01-28T04:07:56.200Z,82.32
2023-01-28T04:10:54.994Z,82.21
2023-01-28T04:13:28.829Z,82.28
2023-01-28T04:15:57.552Z,82.37
2023-01-28T04:18:27.515Z,82.50
2023-01-28T04:20:58.392Z,82.51
2023-01-28T04:23:29.730Z,82.56
2023-01-28T04:25:58.411Z,82.51
2023-01-28T04:28:27.250Z,82.44
2023-01-28T04:30:55.884Z,82.34
2023-01-28T04:33:35.355Z,82.48
2023-01-28T04:36:12.852Z,82.50
2023-01-28T04:39:05.915Z,82.39
2023-01-28T04:41:54.603Z,82.49
2023-01-28T04:44:32.409Z,82.53
2023-01-28T04:47:25.108Z,82.64
2023-01-28T04:50:12.267Z,82.70
2023-01-28T04:53:02.971Z,82.68
2023-01-28T04:55:43.106Z,82.78
2023-01-28T04:58:12.301Z,82.87
2023-01-28T05:00:46.019Z,82.95
2023-01-28T05:03:17.275Z,82.82
2023-01-28T05:05:45.844Z,82.89
2023-01-28T05:08:26.207Z,82.91
2023-01-28T05:10:56.416Z,82.94
2023-01-28T05:13:25.436Z,83.06
2023-01-28T05:15:54.686Z,83.15
2023-01-28T05:18:23.379Z,83.14
2023-01-28T05:21:07.061Z,83.11
2023-01-28T05:23:37.920Z,83.24
2023-01-28T05:26:08.182Z,83.23
2023-01-28T05:28:37.453Z,83.31
2023-01-28T05:31:07.306Z,83.30
2023-01-28T05:33:35.945Z,83.50
2023-01-28T05:36:07.966Z,83.51
2023-01-28T05:38:36.857Z,83.45
2023-01-28T05:41:07.242Z,83.25
2023-01-28T05:43:37.409Z,83.06
2023-01-28T05:46:29.289Z,83.05
2023-01-28T05:49:12.654Z,83.03
2023-01-28T05:52:09.492Z,83.03
2023-01-28T05:54:40.897Z,83.31
2023-01-28T05:57:11.314Z,83.48
2023-01-28T05:59:40.627Z,83.35
2023-01-28T06:02:12.017Z,83.31
2023-01-28T06:04:41.311Z,83.19
2023-01-28T06:07:15.657Z,83.26
2023-01-28T06:09:46.651Z,83.27
2023-01-28T06:12:30.795Z,83.34
2023-01-28T06:16:02.152Z,83.50
2023-01-28T06:18:56.932Z,83.52
2023-01-28T06:21:28.382Z,83.45
2023-01-28T06:24:02.385Z,83.52
2023-01-28T06:26:34.531Z,83.68
2023-01-28T06:29:05.444Z,83.71
2023-01-28T06:31:38.418Z,83.69
2023-01-28T06:34:07.763Z,83.73
2023-01-28T06:36:38.011Z,83.65
2023-01-28T06:39:07.385Z,83.61
2023-01-28T06:41:36.902Z,83.44
2023-01-28T06:44:07.434Z,83.23
2023-01-28T06:46:36.187Z,83.18
2023-01-28T06:49:05.154Z,83.28
2023-01-28T06:51:34.044Z,83.41
2023-01-28T06:54:02.806Z,83.36
2023-01-28T06:56:31.422Z,83.21
2023-01-28T06:59:00.115Z,83.03
2023-01-28T07:01:30.192Z,82.86
2023-01-28T07:03:59.021Z,83.31
2023-01-28T07:06:27.651Z,83.39
2023-01-28T07:08:56.270Z,83.28
2023-01-28T07:11:24.875Z,83.07
2023-01-28T07:13:53.520Z,83.17
2023-01-28T07:16:22.389Z,83.23
2023-01-28T07:18:52.382Z,83.47
2023-01-28T07:21:20.985Z,83.35
2023-01-28T07:23:49.843Z,83.41
2023-01-28T07:26:20.091Z,83.42
2023-01-28T07:28:48.909Z,83.42
2023-01-28T07:31:17.638Z,83.20
2023-01-28T07:33:46.300Z,83.09
2023-01-28T07:36:16.260Z,83.20
2023-01-28T07:38:44.840Z,82.98
2023-01-28T07:41:15.895Z,82.72
2023-01-28T07:43:44.502Z,82.82
2023-01-28T07:46:14.175Z,82.90
2023-01-28T07:48:42.749Z,82.66
2023-01-28T07:51:11.350Z,82.57
2023-01-28T07:53:42.129Z,82.44
2023-01-28T07:56:10.736Z,82.44
2023-01-28T07:58:39.336Z,82.41
2023-01-28T08:01:08.011Z,82.54
2023-01-28T08:03:36.637Z,82.58
2023-01-28T08:06:06.188Z,82.86
2023-01-28T08:08:35.681Z,82.76
2023-01-28T08:11:10.912Z,82.66
2023-01-28T08:13:39.651Z,82.44
2023-01-28T08:16:09.219Z,82.37
2023-01-28T08:18:37.846Z,82.61
2023-01-28T08:21:07.894Z,82.49
2023-01-28T08:23:36.614Z,82.56
2023-01-28T08:26:05.269Z,82.60
2023-01-28T08:28:35.227Z,82.72
2023-01-28T08:31:05.219Z,82.41
2023-01-28T08:33:34.387Z,82.34
2023-01-28T08:36:05.257Z,82.22
2023-01-28T08:38:34.001Z,82.14
2023-01-28T08:41:02.606Z,82.23
2023-01-28T08:43:31.188Z,82.29
2023-01-28T08:46:01.217Z,82.32
2023-01-28T08:48:29.877Z,82.25
2023-01-28T08:51:00.803Z,82.39
2023-01-28T08:53:29.445Z,82.34
2023-01-28T08:55:58.054Z,82.50
2023-01-28T08:58:26.800Z,82.52
2023-01-28T09:00:55.394Z,82.07
2023-01-28T09:03:25.575Z,82.32
2023-01-28T09:05:54.266Z,82.31
2023-01-28T09:08:25.210Z,82.09
2023-01-28T09:10:57.621Z,81.86
2023-01-28T09:13:27.178Z,81.89
2023-01-28T09:15:56.058Z,81.64
2023-01-28T09:18:26.069Z,81.64
2023-01-28T09:20:54.717Z,81.78
2023-01-28T09:23:23.349Z,81.67
2023-01-28T09:25:52.019Z,81.68
2023-01-28T09:28:20.594Z,81.86
2023-01-28T09:30:49.313Z,81.78
2023-01-28T09:33:18.145Z,81.79
2023-01-28T09:35:48.123Z,81.67
2023-01-28T09:38:19.759Z,81.48
2023-01-28T09:40:48.749Z,81.25
2023-01-28T09:43:57.238Z,80.90
2023-01-28T09:46:33.805Z,80.61
2023-01-28T09:49:11.065Z,80.69
2023-01-28T09:51:46.717Z,80.85
2023-01-28T09:54:28.349Z,80.68
2023-01-28T09:57:07.317Z,80.96
2023-01-28T09:59:37.373Z,80.74
2023-01-28T10:02:37.056Z,80.68
2023-01-28T10:05:19.201Z,80.77
2023-01-28T10:08:04.849Z,80.77
2023-01-28T10:10:44.464Z,80.79
2023-01-28T10:13:29.770Z,80.90
2023-01-28T10:16:21.637Z,80.56
2023-01-28T10:18:58.185Z,80.57
2023-01-28T10:21:38.339Z,80.46
2023-01-28T10:24:17.130Z,80.32
2023-01-28T10:26:46.476Z,80.50
2023-01-28T10:29:20.109Z,80.57
2023-01-28T10:31:55.094Z,80.62
2023-01-28T10:34:24.847Z,80.72
2023-01-28T10:36:53.975Z,80.75
2023-01-28T10:39:26.502Z,80.85
2023-01-28T10:41:59.076Z,80.56
2023-01-28T10:44:37.228Z,80.45
2023-01-28T10:47:15.964Z,80.36
2023-01-28T10:49:52.950Z,80.32
2023-01-28T10:52:21.653Z,80.50
2023-01-28T10:55:01.715Z,80.45
2023-01-28T10:57:36.050Z,80.39
2023-01-28T11:00:25.764Z,80.38
2023-01-28T11:02:56.267Z,80.40
2023-01-28T11:05:28.271Z,80.28
2023-01-28T11:08:14.875Z,80.04
2023-01-28T11:10:46.382Z,79.82
2023-01-28T11:13:20.713Z,80.09
2023-01-28T11:15:52.555Z,80.35
2023-01-28T11:18:26.870Z,80.36
2023-01-28T11:20:59.160Z,80.28
2023-01-28T11:23:33.306Z,80.45
2023-01-28T11:26:10.264Z,80.44
2023-01-28T11:28:43.401Z,80.45
2023-01-28T11:31:16.339Z,80.36
2023-01-28T11:33:50.463Z,80.23
2023-01-28T11:36:22.404Z,80.21
2023-01-28T11:38:55.665Z,80.34
2023-01-28T11:41:33.095Z,80.40
2023-01-28T11:44:18.985Z,80.53
2023-01-28T11:47:20.905Z,80.58
2023-01-28T11:50:09.819Z,80.56
2023-01-28T11:53:09.762Z,80.43
2023-01-28T11:55:56.327Z,80.22
2023-01-28T11:58:41.748Z,80.23
2023-01-28T12:01:17.988Z,80.54
2023-01-28T12:04:20.359Z,80.63
2023-01-28T12:07:03.300Z,80.50
2023-01-28T12:09:44.029Z,80.50
2023-01-28T12:12:41.134Z,80.35
2023-01-28T12:15:52.064Z,80.25
2023-01-28T12:18:47.894Z,80.31
2023-01-28T12:21:32.147Z,80.40
2023-01-28T12:24:21.605Z,80.34
2023-01-28T12:27:03.440Z,80.22
2023-01-28T12:29:47.629Z,80.02
2023-01-28T12:32:46.295Z,79.94
2023-01-28T12:35:44.716Z,79.93
2023-01-28T12:38:22.973Z,80.00
2023-01-28T12:41:06.106Z,79.94
2023-01-28T12:43:51.877Z,80.05
2023-01-28T12:46:43.659Z,80.09
2023-01-28T12:49:20.547Z,80.23
2023-01-28T12:52:00.909Z,80.25
2023-01-28T12:54:38.229Z,80.22
2023-01-28T12:57:12.957Z,80.16
2023-01-28T12:59:49.780Z,80.23
2023-01-28T13:02:28.130Z,80.29
2023-01-28T13:05:08.026Z,80.56
2023-01-28T13:07:43.252Z,80.78
2023-01-28T13:10:24.108Z,80.67
2023-01-28T13:12:54.539Z,80.72
2023-01-28T13:15:24.807Z,80.92
2023-01-28T13:17:59.391Z,80.78
2023-01-28T13:20:40.065Z,80.68
2023-01-28T13:23:25.895Z,80.62
2023-01-28T13:25:56.622Z,80.78
2023-01-28T13:28:31.899Z,80.72
2023-01-28T13:31:07.427Z,80.74
2023-01-28T13:33:39.209Z,80.61
2023-01-28T13:36:27.088Z,80.64
2023-01-28T13:39:06.230Z,80.57
2023-01-28T13:41:44.007Z,80.50
2023-01-28T13:44:29.816Z,80.39
2023-01-28T13:47:13.118Z,80.67
2023-01-28T13:49:46.060Z,80.55
2023-01-28T13:52:28.539Z,80.61
2023-01-28T13:55:05.015Z,80.34
2023-01-28T13:58:36.323Z,80.40
2023-01-28T14:01:50.140Z,80.60
2023-01-28T14:05:26.140Z,80.56
2023-01-28T14:08:34.582Z,80.56
2023-01-28T14:11:25.865Z,80.38
2023-01-28T14:14:27.829Z,80.58
2023-01-28T14:17:01.724Z,80.83
2023-01-28T14:19:34.959Z,81.04
2023-01-28T14:22:09.012Z,81.32
2023-01-28T14:24:41.860Z,81.28
2023-01-28T14:27:19.276Z,81.31
2023-01-28T14:30:05.182Z,81.39
2023-01-28T14:32:36.417Z,81.34
2023-01-28T14:35:11.030Z,81.01
2023-01-28T14:37:40.083Z,80.95
2023-01-28T14:40:17.815Z,80.74
2023-01-28T14:42:50.736Z,80.75
2023-01-28T14:45:38.764Z,80.82
2023-01-28T14:48:26.513Z,81.08
2023-01-28T14:51:24.206Z,81.14
2023-01-28T14:54:18.635Z,80.96
2023-01-28T14:57:30.022Z,80.91
2023-01-28T15:00:01.125Z,80.96
2023-01-28T15:02:33.113Z,80.97
2023-01-28T15:05:11.490Z,80.61
2023-01-28T15:07:45.403Z,80.71
2023-01-28T15:10:22.369Z,80.59
2023-01-28T15:12:57.349Z,80.44
2023-01-28T15:15:31.889Z,80.58
2023-01-28T15:18:05.794Z,80.68
2023-01-28T15:20:34.816Z,80.94
2023-01-28T15:23:09.926Z,80.90
2023-01-28T15:25:38.843Z,81.03
2023-01-28T15:28:21.582Z,80.67
2023-01-28T15:30:50.454Z,80.41
2023-01-28T15:33:21.817Z,80.40
2023-01-28T15:35:52.026Z,80.48
2023-01-28T15:38:21.358Z,80.59
2023-01-28T15:40:56.109Z,80.23
2023-01-28T15:43:30.237Z,80.18
2023-01-28T15:46:00.714Z,80.05
2023-01-28T15:48:33.355Z,80.19
2023-01-28T15:51:06.171Z,80.27
2023-01-28T15:53:42.771Z,80.45
2023-01-28T15:56:13.920Z,80.56
2023-01-28T15:58:46.154Z,80.56
2023-01-28T16:01:19.472Z,80.61
2023-01-28T16:04:01.084Z,80.76
2023-01-28T16:06:37.077Z,80.83
2023-01-28T16:09:08.261Z,80.81
2023-01-28T16:11:44.865Z,80.86
2023-01-28T16:14:26.484Z,80.85
2023-01-28T16:16:57.449Z,81.00
2023-01-28T16:19:38.429Z,80.81
2023-01-28T16:22:08.607Z,80.61
2023-01-28T16:24:37.771Z,80.40
2023-01-28T16:27:20.287Z,80.56
2023-01-28T16:29:50.557Z,80.59
2023-01-28T16:32:32.594Z,80.58
2023-01-28T16:35:03.285Z,80.53
2023-01-28T16:37:32.621Z,80.52
2023-01-28T16:40:02.344Z,80.61
2023-01-28T16:42:34.080Z,80.70
2023-01-28T16:45:07.831Z,80.71
2023-01-28T16:47:37.501Z,80.95
2023-01-28T16:50:07.250Z,80.71
2023-01-28T16:52:36.083Z,80.74
2023-01-28T16:55:05.999Z,80.85
2023-01-28T16:57:38.011Z,80.83
2023-01-28T17:00:18.416Z,80.87
2023-01-28T17:02:47.267Z,80.79
2023-01-28T17:05:16.502Z,80.96
2023-01-28T17:07:45.573Z,80.92
2023-01-28T17:10:14.264Z,81.05
2023-01-28T17:12:43.235Z,80.92
2023-01-28T17:15:13.984Z,80.93
2023-01-28T17:17:42.891Z,80.92
2023-01-28T17:20:13.296Z,80.90
2023-01-28T17:22:46.787Z,80.85
2023-01-28T17:25:15.821Z,80.79
2023-01-28T17:27:45.728Z,80.85
2023-01-28T17:30:18.429Z,81.08
2023-01-28T17:32:47.315Z,81.04
2023-01-28T17:35:16.520Z,80.91
2023-01-28T17:37:45.522Z,81.02
2023-01-28T17:40:15.463Z,80.97
2023-01-28T17:42:46.055Z,81.08
2023-01-28T17:45:17.286Z,81.14
2023-01-28T17:47:46.793Z,81.16
2023-01-28T17:50:15.898Z,81.25
2023-01-28T17:52:44.538Z,81.29
2023-01-28T17:55:13.427Z,81.30
2023-01-28T17:57:46.246Z,81.21
2023-01-28T18:00:18.285Z,81.29
2023-01-28T18:02:50.180Z,81.34
2023-01-28T18:05:19.030Z,81.25
2023-01-28T18:07:48.065Z,81.26
2023-01-28T18:10:17.549Z,81.30
2023-01-28T18:12:47.767Z,81.30
2023-01-28T18:15:18.857Z,81.45
2023-01-28T18:17:47.676Z,81.52
2023-01-28T18:20:16.716Z,81.57
2023-01-28T18:22:45.733Z,81.61
2023-01-28T18:25:18.632Z,81.61
2023-01-28T18:27:47.719Z,81.41
2023-01-28T18:30:19.105Z,81.37
2023-01-28T18:32:47.961Z,81.38
2023-01-28T18:35:17.316Z,81.53
2023-01-28T18:37:47.530Z,81.60
2023-01-28T18:40:16.568Z,81.81
2023-01-28T18:42:45.199Z,82.00
2023-01-28T18:46:01.478Z,82.28
2023-01-28T18:49:02.987Z,82.29
2023-01-28T18:52:05.016Z,82.32
2023-01-28T18:55:06.139Z,82.25
2023-01-28T18:57:58.825Z,82.38
2023-01-28T19:00:27.686Z,82.45
2023-01-28T19:02:57.687Z,82.31
2023-01-28T19:05:26.317Z,82.39
2023-01-28T19:07:55.280Z,82.58
2023-01-28T19:10:47.462Z,82.63
2023-01-28T19:16:13.063Z,82.98
2023-01-28T19:19:03.678Z,82.93
2023-01-28T19:21:35.004Z,82.95
2023-01-28T19:24:09.635Z,82.98
2023-01-28T19:26:40.827Z,82.95
2023-01-28T19:29:13.389Z,83.12
2023-01-28T19:31:44.444Z,83.17
2023-01-28T19:34:16.725Z,82.96
2023-01-28T19:36:45.906Z,83.08
2023-01-28T19:39:15.951Z,83.16
2023-01-28T19:41:45.127Z,83.21
2023-01-28T19:44:14.116Z,83.13
2023-01-28T19:46:44.117Z,83.47
2023-01-28T19:49:14.288Z,83.41
2023-01-28T19:51:43.365Z,83.34
2023-01-28T19:54:12.773Z,83.17
2023-01-28T19:56:41.669Z,83.28
2023-01-28T19:59:10.532Z,83.35
2023-01-28T20:01:39.307Z,83.50
2023-01-28T20:04:08.250Z,83.57
2023-01-28T20:06:38.713Z,83.53
2023-01-28T20:09:10.276Z,83.36
2023-01-28T20:11:38.921Z,83.35
2023-01-28T20:14:09.349Z,83.33
2023-01-28T20:16:38.081Z,83.14
2023-01-28T20:19:08.742Z,83.29
2023-01-28T20:21:38.802Z,83.11
2023-01-28T20:24:08.507Z,82.89
2023-01-28T20:26:39.235Z,82.83
2023-01-28T20:29:10.796Z,82.75
2023-01-28T20:31:41.692Z,82.72
2023-01-28T20:34:15.258Z,82.48
2023-01-28T20:36:46.055Z,82.34
2023-01-28T20:39:15.541Z,82.44
2023-01-28T20:41:44.352Z,82.44
2023-01-28T20:44:13.115Z,82.37
2023-01-28T20:46:41.936Z,82.23
2023-01-28T20:49:11.156Z,82.11
2023-01-28T20:51:40.128Z,82.26
2023-01-28T20:54:12.729Z,82.17
2023-01-28T20:56:41.381Z,82.06
2023-01-28T20:59:13.402Z,82.17
2023-01-28T21:01:42.502Z,82.25
2023-01-28T21:04:12.021Z,82.47
2023-01-28T21:06:41.103Z,82.57
2023-01-28T21:09:14.324Z,82.69
2023-01-28T21:11:42.988Z,82.83
2023-01-28T21:14:12.599Z,83.26
2023-01-28T21:16:42.476Z,83.44
2023-01-28T21:19:11.280Z,83.51
2023-01-28T21:21:42.681Z,83.74
2023-01-28T21:24:12.847Z,83.79
2023-01-28T21:26:41.813Z,83.92
2023-01-28T21:29:10.538Z,84.10
2023-01-28T21:31:39.130Z,83.97
2023-01-28T21:34:08.435Z,84.05
2023-01-28T21:36:37.533Z,84.13
2023-01-28T21:39:06.685Z,84.19
2023-01-28T21:41:37.244Z,84.21
2023-01-28T21:44:06.025Z,84.36
2023-01-28T21:46:38.437Z,84.44
2023-01-28T21:49:07.088Z,84.45
2023-01-28T21:51:39.623Z,84.42
2023-01-28T21:54:11.831Z,84.14
2023-01-28T21:56:47.715Z,84.20
2023-01-28T21:59:29.801Z,84.14
2023-01-28T22:02:00.320Z,84.18
2023-01-28T22:04:32.615Z,84.10
2023-01-28T22:07:02.759Z,84.07
2023-01-28T22:09:33.582Z,84.08
2023-01-28T22:12:05.191Z,84.08
2023-01-28T22:14:34.308Z,84.34
2023-01-28T22:17:04.253Z,84.17
2023-01-28T22:19:32.888Z,84.08
2023-01-28T22:22:01.737Z,84.20
2023-01-28T22:24:31.485Z,83.95
2023-01-28T22:27:00.198Z,84.22
2023-01-28T22:29:30.180Z,84.25
2023-01-28T22:31:58.916Z,84.14
2023-01-28T22:34:28.189Z,84.25
2023-01-28T22:36:56.805Z,84.42
2023-01-28T22:39:25.417Z,84.34
2023-01-28T22:41:54.147Z,84.46
2023-01-28T22:44:22.762Z,84.40
2023-01-28T22:46:52.763Z,84.59
2023-01-28T22:49:22.188Z,84.60
2023-01-28T22:51:50.803Z,84.62
2023-01-28T22:54:19.365Z,84.70
2023-01-28T22:56:48.692Z,84.78
2023-01-28T22:59:17.264Z,84.65
2023-01-28T23:01:46.005Z,84.71
2023-01-28T23:04:16.040Z,84.52
2023-01-28T23:06:44.643Z,84.53
2023-01-28T23:09:13.293Z,84.47
2023-01-28T23:11:42.067Z,84.32
2023-01-28T23:14:28.635Z,84.19
2023-01-28T23:17:14.555Z,84.24
2023-01-28T23:20:01.824Z,84.22
2023-01-28T23:22:52.197Z,84.35
2023-01-28T23:25:23.913Z,84.26
2023-01-28T23:27:52.584Z,84.16
2023-01-28T23:30:25.212Z,84.19
2023-01-28T23:32:58.229Z,84.20
2023-01-28T23:35:31.016Z,84.19
2023-01-28T23:38:00.041Z,84.18
2023-01-28T23:40:28.800Z,84.14
2023-01-28T23:42:58.295Z,84.14
2023-01-28T23:45:27.229Z,84.05
2023-01-28T23:47:55.876Z,83.88
2023-01-28T23:50:24.798Z,84.02
2023-01-28T23:52:54.797Z,84.10
2023-01-28T23:55:23.387Z,84.00
2023-01-28T23:57:51.934Z,83.77
